Seal Beach, California
Current Conditions -  °F | °C
As of 4:58 AM on Thursday 18 Dec 2014 (Local Time) from KSLI Reporting Station
Clear Clear  
Wind Chill: 47°   Ceiling: Unl
Heat Index: 47°   Visibility: 10mi
Dew Point: 45°   Wind: 3mph
Humidity: 91%   Direction: 240°WSW
Pressure: 30.12"   Gusts: NA
Location:  33.74°N, 118.1°W
Report Text: KSLI 181258Z AUTO 24003KT 10SM CLR 09/07 A3012 RMK AO2 SLP203 T00860072
Loading
Personal Weather Stations






























Interactive Weather Map New forecast layout! Learn more

10-Day Weather Forecast

Advertisements
Track Severe Weather on mobile